LDRI/RJK METAR and TAF weather

Enter ICAO airport designator
Station Type Date Time Source
LDRI METAR 2021/03/05 12:30 UTC NOAA

LDRI 051230Z 27005KT 190V320 9999 SCT033 13/07 Q1017


Station Type Date Time Source
LDRI Decoded METAR 2021/03/05 12:30 UTC NOAA

Rijeka / Omisalj, Croatia (LDRI) 45-13N 014-35E
Mar 05, 2021 - 07:30 AM EST / 2021.03.05 1230 UTC
Wind: from the W (270 degrees) at 6 MPH (5 KT) (direction variable):0
Visibility: greater than 7 mile(s):0
Sky conditions: partly cloudy
Temperature: 55 F (13 C)
Dew Point: 44 F (7 C)
Relative Humidity: 66%
Pressure (altimeter): 30.03 in. Hg (1017 hPa)
ob: LDRI 051230Z 27005KT 190V320 9999 SCT033 13/07 Q1017
cycle: 12

Station Type Date Time Source
LDRI TAF 2021/03/05 12:27 UTC NOAA

TAF LDRI 051125Z 0512/0612 VRB02KT 9999 SCT010 BKN030 TX13/0512Z TN05/0604Z
BECMG 0518/0520 06015G25KT
BECMG 0521/0523 06025G40KT
BECMG 0607/0609 06015G25KT
TEMPO 0609/0612 06010KT

Example: see airport list